Decoded Metar for LFMY (SALON in FRANCE) (IATA:N/A) | Meteo·Mobile Aviation Weather
aviador You're here:

LFMY Decoded Metar

SALON in FRANCE
Report Time2018-11-12 22:30:00
UTC Time2018-11-12 23:07:41
Flight Rules vfr VFR
Wind090° at 06 kt
W.Decomp.*RWY 16: 2.0 kt HW 5.7 kt LCW
W.Rank090° ranks 17
Current wind is below 090° avg. (6.6)
Visibility9999 m
Phenomena:N/A
Clouds:Overcast 050 Hf
Expected CloudBase > 2,000 ft AGL from Temp-Dew spread
Ceiling5,000 ft
Temp17°C (ISA +2)
Dew Point12°C (73% RH)
AAT15.5°C
QNH1024 hPa
Density Alt299 ft
Elevation197 ft
Report Wrong Elevation
Raw Report
METAR LFMY 122230Z AUTO 09006KT 060V130 9999 OVC050 17/12 Q1024=

Extra information for LFMY:More info

Metar Taf Metar & Taf Last 4 Metars F.Rules Stats Wind Profile Meteogram Temp Stats Airport Information Weather charts Add Link Nearby VenuesMetar ALERT Operation Metar Decoded Social comments